Time;durP1;ratioP1;P1;durP2;ratioP2;P2;SDS_P1;SDS_P2;PMS_P1;PMS_P2;Temp;Humidity;BMP_temperature;BMP_pressure;BME280_temperature;BME280_humidity;BME280_pressure;Samples;Min_cycle;Max_cycle;Signal;HPM_P1;HPM_P2
2022/01/30 00:00:38;;;;;;;2.67;2.23;;;9.90;76.20;;;-142.21;100.00;112049.66;5093456;28;20541;-78
2022/01/30 00:03:24;;;;;;;2.40;2.20;;;9.90;76.10;;;-142.21;100.00;112049.66;5094941;28;20521;-79
2022/01/30 00:05:51;;;;;;;2.20;2.00;;;9.90;76.10;;;-142.21;100.00;112049.66;5094408;28;20595;-77
2022/01/30 00:08:26;;;;;;;2.50;2.30;;;9.90;76.30;;;-142.21;100.00;112049.66;5094904;28;20496;-79
2022/01/30 00:10:59;;;;;;;2.20;2.10;;;10.00;75.20;;;-142.21;100.00;112049.66;5094856;28;20542;-81
2022/01/30 00:13:28;;;;;;;2.90;2.30;;;10.00;75.10;;;-142.21;100.00;112049.66;5095436;28;20442;-80
2022/01/30 00:15:56;;;;;;;2.87;2.60;;;9.90;76.20;;;-142.21;100.00;112049.66;5095293;28;20524;-79
2022/01/30 00:21:29;;;;;;;2.53;2.33;;;9.90;76.50;;;-142.21;100.00;112049.66;5092305;28;20491;-81
2022/01/30 00:24:04;;;;;;;2.50;2.30;;;9.90;76.50;;;-142.21;100.00;112049.66;5089409;28;20531;-78
2022/01/30 00:26:34;;;;;;;2.60;2.40;;;10.00;75.50;;;-142.21;100.00;112049.66;5095120;28;20926;-79
2022/01/30 00:29:02;;;;;;;2.37;2.17;;;10.00;75.20;;;-142.21;100.00;112049.66;5094110;28;20533;-78
2022/01/30 00:31:31;;;;;;;2.70;2.50;;;10.00;75.20;;;-142.21;100.00;112049.66;5094630;28;20442;-78
2022/01/30 00:33:59;;;;;;;2.70;2.50;;;10.00;75.10;;;-142.21;100.00;112049.66;5094007;28;20537;-77
2022/01/30 00:36:27;;;;;;;2.80;2.43;;;10.00;74.80;;;-142.21;100.00;112049.66;5095082;28;20942;-78
2022/01/30 00:38:55;;;;;;;2.60;2.40;;;10.10;75.10;;;-142.21;100.00;112049.66;5083797;28;20478;-80
2022/01/30 00:41:24;;;;;;;2.83;2.60;;;10.00;75.50;;;-142.21;100.00;112049.66;5095352;28;20466;-79
2022/01/30 00:43:52;;;;;;;2.43;2.20;;;10.10;75.70;;;-142.21;100.00;112049.66;5093194;28;20844;-80
2022/01/30 00:46:19;;;;;;;2.93;2.60;;;10.00;76.10;;;-142.21;100.00;112049.66;5099724;28;20446;-80
2022/01/30 00:48:47;;;;;;;3.07;2.40;;;10.00;75.90;;;-142.21;100.00;112049.66;5093547;28;20853;-79
2022/01/30 00:51:17;;;;;;;4.97;2.37;;;10.00;76.10;;;-142.21;100.00;112049.66;5083385;28;20471;-77
2022/01/30 00:53:45;;;;;;;2.67;2.20;;;10.10;76.30;;;-142.21;100.00;112049.66;5094213;28;20439;-78
2022/01/30 00:56:12;;;;;;;2.47;2.27;;;10.00;76.10;;;-142.21;100.00;112049.66;5093846;28;20612;-78
2022/01/30 00:58:41;;;;;;;3.10;2.50;;;10.00;76.20;;;-142.21;100.00;112049.66;5093211;28;20443;-79
2022/01/30 01:01:10;;;;;;;3.20;2.50;;;10.00;76.20;;;-142.21;100.00;112049.66;5094074;28;20508;-79
2022/01/30 01:03:37;;;;;;;3.17;2.50;;;10.00;76.60;;;-142.21;100.00;112049.66;5094048;28;20454;-79
2022/01/30 01:06:06;;;;;;;2.93;2.50;;;10.00;76.00;;;-142.21;100.00;112049.66;5094610;28;20478;-78
2022/01/30 01:08:46;;;;;;;3.07;2.47;;;10.10;76.20;;;-142.21;100.00;112049.66;5093224;28;20479;-77
2022/01/30 01:11:37;;;;;;;3.87;2.60;;;10.00;76.20;;;-142.21;100.00;112049.66;5092994;28;20693;-76
2022/01/30 01:20:51;;;;;;;3.10;2.40;;;10.00;76.30;;;-142.21;100.00;112049.66;5080441;28;20988;-77
2022/01/30 01:25:29;;;;;;;2.77;2.57;;;10.00;76.80;;;-142.21;100.00;112049.66;5062710;28;20479;-78
2022/01/30 01:27:56;;;;;;;2.70;2.50;;;10.00;77.20;;;-142.21;100.00;112049.66;5051701;28;20921;-78
2022/01/30 01:30:25;;;;;;;2.70;2.40;;;10.00;77.40;;;-142.21;100.00;112049.66;5070626;28;20526;-78
2022/01/30 01:32:53;;;;;;;2.77;2.57;;;10.00;77.90;;;-142.21;100.00;112049.66;5093062;28;20482;-78
2022/01/30 01:35:21;;;;;;;2.60;2.40;;;9.90;79.30;;;-142.21;100.00;112049.66;5098824;28;20473;-79
2022/01/30 01:37:53;;;;;;;2.47;2.27;;;10.00;77.80;;;-142.21;100.00;112049.66;5095672;28;20446;-77
2022/01/30 01:40:23;;;;;;;3.70;2.30;;;10.00;78.50;;;-142.21;100.00;112049.66;5092765;28;20478;-78
2022/01/30 01:43:01;;;;;;;3.23;2.43;;;10.00;77.90;;;-142.21;100.00;112049.66;5097312;28;20450;-78
2022/01/30 01:45:34;;;;;;;3.00;2.23;;;10.00;77.70;;;-142.21;100.00;112049.66;5096038;28;20530;-80
2022/01/30 01:48:11;;;;;;;3.13;2.50;;;10.00;77.50;;;-142.21;100.00;112049.66;5093342;28;20488;-79
2022/01/30 01:50:43;;;;;;;2.33;2.13;;;10.00;77.60;;;-142.21;100.00;112049.66;5092890;28;21022;-78
2022/01/30 01:53:17;;;;;;;2.60;2.40;;;10.00;77.90;;;-142.21;100.00;112049.66;5092960;28;20501;-80
2022/01/30 01:55:45;;;;;;;2.70;2.20;;;10.00;77.90;;;-142.21;100.00;112049.66;5092636;28;20482;-80
2022/01/30 01:58:13;;;;;;;2.40;2.20;;;10.00;77.70;;;-142.21;100.00;112049.66;5092905;28;20482;-78
2022/01/30 02:00:43;;;;;;;2.50;2.30;;;10.10;77.40;;;-142.21;100.00;112049.66;5092992;28;20501;-78
2022/01/30 02:03:18;;;;;;;2.63;2.30;;;10.10;77.40;;;-142.21;100.00;112049.66;5092456;28;20446;-77
2022/01/30 02:05:52;;;;;;;2.37;2.17;;;10.00;77.50;;;-142.21;100.00;112049.66;5093140;28;20537;-77
2022/01/30 02:08:34;;;;;;;2.50;2.10;;;10.00;77.60;;;-142.21;100.00;112049.66;5092002;28;20473;-78
2022/01/30 02:11:06;;;;;;;2.43;2.23;;;9.90;78.80;;;-142.21;100.00;112049.66;5090580;28;20474;-80
2022/01/30 02:14:11;;;;;;;3.13;2.43;;;9.90;79.20;;;-142.21;100.00;112049.66;5092212;28;20858;-78
2022/01/30 02:25:13;;;;;;;2.30;2.10;;;9.90;79.00;;;-142.21;100.00;112049.66;5092490;28;20430;-77
2022/01/30 02:27:40;;;;;;;2.20;2.00;;;9.70;79.10;;;-142.21;100.00;112049.66;5076753;28;20434;-78
2022/01/30 02:30:09;;;;;;;2.37;2.17;;;9.80;79.40;;;-142.21;100.00;112049.66;5092816;28;20489;-77
2022/01/30 02:32:36;;;;;;;2.30;2.10;;;9.80;79.50;;;-142.21;100.00;112049.66;5092208;28;20438;-76
2022/01/30 02:35:05;;;;;;;2.33;2.13;;;9.90;79.50;;;-142.21;100.00;112049.66;5092230;28;20486;-78
2022/01/30 02:37:34;;;;;;;2.10;1.93;;;9.90;79.80;;;-142.21;100.00;112049.66;5091162;28;21014;-76
2022/01/30 02:40:04;;;;;;;2.70;2.13;;;9.90;79.40;;;-142.21;100.00;112049.66;5091342;28;20485;-77
2022/01/30 02:42:34;;;;;;;3.33;2.00;;;9.90;79.30;;;-142.21;100.00;112049.66;5091609;28;20454;-77
2022/01/30 02:45:05;;;;;;;2.23;2.03;;;9.90;79.40;;;-142.21;100.00;112049.66;5092397;28;20454;-77
2022/01/30 02:47:55;;;;;;;2.30;2.10;;;9.90;79.90;;;-142.21;100.00;112049.66;5091595;28;20504;-78
2022/01/30 02:50:34;;;;;;;1.83;1.63;;;9.90;79.80;;;-142.21;100.00;112049.66;5081822;28;20453;-79
2022/01/30 02:53:10;;;;;;;2.30;2.10;;;9.90;79.90;;;-142.21;100.00;112049.66;5088934;28;20824;-79
2022/01/30 02:55:38;;;;;;;4.57;2.13;;;10.00;78.60;;;-142.21;100.00;112049.66;5091423;28;20474;-77
2022/01/30 02:58:11;;;;;;;3.33;2.20;;;10.00;78.60;;;-142.21;100.00;112049.66;5091913;28;20469;-78
2022/01/30 03:00:38;;;;;;;2.17;2.00;;;10.00;78.70;;;-142.21;100.00;112049.66;5091305;28;20551;-80
2022/01/30 03:03:12;;;;;;;2.33;2.13;;;10.00;78.70;;;-142.21;100.00;112049.66;5090644;28;21047;-80
2022/01/30 03:05:39;;;;;;;2.30;2.10;;;10.00;78.60;;;-142.21;100.00;112049.66;5091646;28;20439;-79
2022/01/30 03:08:14;;;;;;;2.40;2.20;;;10.10;78.30;;;-142.21;100.00;112049.66;5091575;28;20466;-79
2022/01/30 03:10:42;;;;;;;3.60;2.20;;;10.10;78.50;;;-142.21;100.00;112049.66;5090907;28;20484;-77
2022/01/30 03:13:15;;;;;;;2.60;2.33;;;10.10;78.30;;;-142.21;100.00;112049.66;5091661;28;20474;-77
2022/01/30 03:15:42;;;;;;;2.30;2.10;;;10.10;78.20;;;-142.21;100.00;112049.66;5091627;28;20446;-80
2022/01/30 03:18:11;;;;;;;2.57;2.37;;;10.10;78.00;;;-142.21;100.00;112049.66;5091665;28;20474;-78
2022/01/30 03:20:38;;;;;;;2.30;2.10;;;10.10;78.30;;;-142.21;100.00;112049.66;5091456;28;20523;-78
2022/01/30 03:23:13;;;;;;;2.70;2.50;;;10.10;78.50;;;-142.21;100.00;112049.66;5090205;28;20985;-76
2022/01/30 03:25:40;;;;;;;2.77;2.20;;;10.10;78.60;;;-142.21;100.00;112049.66;5092071;28;20461;-78
2022/01/30 03:28:08;;;;;;;3.40;2.20;;;10.10;78.20;;;-142.21;100.00;112049.66;5090493;28;20970;-77
2022/01/30 03:30:37;;;;;;;2.23;2.03;;;10.10;78.10;;;-142.21;100.00;112049.66;5091559;28;20571;-77
2022/01/30 03:33:11;;;;;;;2.07;1.87;;;10.10;78.20;;;-142.21;100.00;112049.66;5090843;28;20827;-77
2022/01/30 03:35:38;;;;;;;2.20;2.10;;;10.10;78.10;;;-142.21;100.00;112049.66;5091269;28;20492;-77
2022/01/30 03:38:06;;;;;;;2.20;2.00;;;10.10;78.00;;;-142.21;100.00;112049.66;5090545;28;20453;-77
2022/01/30 03:40:38;;;;;;;2.77;2.10;;;10.10;78.20;;;-142.21;100.00;112049.66;5091544;28;20565;-77
2022/01/30 03:43:05;;;;;;;2.57;2.00;;;10.10;78.20;;;-142.21;100.00;112049.66;5090793;28;20474;-78
2022/01/30 03:45:33;;;;;;;2.83;1.90;;;10.10;78.30;;;-142.21;100.00;112049.66;5091414;28;20447;-78
2022/01/30 03:48:00;;;;;;;2.63;1.97;;;10.10;78.30;;;-142.21;100.00;112049.66;5076787;28;20450;-78
2022/01/30 03:50:27;;;;;;;2.37;2.17;;;10.10;78.20;;;-142.21;100.00;112049.66;5091279;28;20455;-79
2022/01/30 03:52:55;;;;;;;2.33;2.10;;;10.00;78.20;;;-142.21;100.00;112049.66;5091829;28;20871;-79
2022/01/30 03:55:23;;;;;;;2.40;2.17;;;10.10;78.20;;;-142.21;100.00;112049.66;5091618;28;20451;-78
2022/01/30 03:57:53;;;;;;;2.20;2.00;;;10.00;78.20;;;-142.21;100.00;112049.66;5091031;28;20498;-77
2022/01/30 04:00:21;;;;;;;2.77;2.20;;;10.00;78.20;;;-142.21;100.00;112049.66;5090155;28;20478;-81
2022/01/30 04:02:49;;;;;;;2.37;2.07;;;10.10;78.70;;;-142.21;100.00;112049.66;5091248;28;20862;-78
2022/01/30 04:05:17;;;;;;;2.80;1.97;;;10.00;78.70;;;-142.21;100.00;112049.66;5090180;28;20487;-78
2022/01/30 04:07:51;;;;;;;2.27;2.07;;;10.00;78.90;;;-142.21;100.00;112049.66;5091506;28;20466;-78
2022/01/30 04:10:19;;;;;;;2.93;2.17;;;10.00;78.80;;;-142.21;100.00;112049.66;5090149;28;20568;-77
2022/01/30 04:12:48;;;;;;;2.87;2.20;;;10.00;78.70;;;-142.21;100.00;112049.66;5091258;28;21001;-78
2022/01/30 04:15:18;;;;;;;2.13;1.93;;;10.00;78.90;;;-142.21;100.00;112049.66;5091003;28;20485;-78
2022/01/30 04:17:51;;;;;;;2.20;2.00;;;10.00;78.90;;;-142.21;100.00;112049.66;5090318;28;20868;-78
2022/01/30 04:20:19;;;;;;;2.90;2.43;;;10.00;79.00;;;-142.21;100.00;112049.66;5090934;28;20484;-79
2022/01/30 04:22:48;;;;;;;2.50;2.30;;;10.10;78.90;;;-142.21;100.00;112049.66;5091027;28;20470;-79
2022/01/30 04:25:15;;;;;;;2.63;2.13;;;10.00;78.90;;;-142.21;100.00;112049.66;5091143;28;20458;-78
2022/01/30 04:27:44;;;;;;;2.10;1.90;;;10.10;78.80;;;-142.21;100.00;112049.66;5090022;28;20524;-80
2022/01/30 04:30:14;;;;;;;2.27;2.07;;;10.00;79.00;;;-142.21;100.00;112049.66;5091453;28;20482;-79
2022/01/30 04:32:50;;;;;;;2.67;2.03;;;10.00;79.00;;;-142.21;100.00;112049.66;5081895;28;20498;-78
2022/01/30 04:35:22;;;;;;;3.97;2.23;;;10.00;79.00;;;-142.21;100.00;112049.66;5093035;28;20533;-79
2022/01/30 04:38:02;;;;;;;2.93;2.30;;;10.00;78.70;;;-142.21;100.00;112049.66;5093707;28;20872;-82
2022/01/30 04:57:38;;;;;;;2.80;2.50;;;9.90;79.80;;;-142.21;100.00;112049.66;5093104;28;20462;-79
2022/01/30 05:00:24;;;;;;;2.77;2.50;;;9.70;80.70;;;-142.21;100.00;112049.66;5093679;28;20778;-78
2022/01/30 05:03:05;;;;;;;4.73;2.80;;;9.70;80.30;;;-142.21;100.00;112049.66;5086789;28;20799;-80
2022/01/30 05:05:46;;;;;;;2.77;2.43;;;9.60;80.90;;;-142.21;100.00;112049.66;5094576;28;20913;-79
2022/01/30 05:08:20;;;;;;;3.53;2.77;;;9.60;80.60;;;-142.21;100.00;112049.66;5093541;28;20463;-79
2022/01/30 05:10:48;;;;;;;2.77;2.50;;;9.60;80.60;;;-142.21;100.00;112049.66;5094012;28;20485;-79
2022/01/30 05:13:25;;;;;;;2.60;2.40;;;9.50;80.60;;;-142.21;100.00;112049.66;5092114;28;21044;-78
2022/01/30 05:15:53;;;;;;;3.53;2.80;;;9.50;80.50;;;-142.21;100.00;112049.66;5094713;28;20495;-80
2022/01/30 05:18:24;;;;;;;2.50;2.20;;;9.50;80.70;;;-142.21;100.00;112049.66;5093343;28;20462;-79
2022/01/30 05:20:54;;;;;;;3.30;2.33;;;9.40;80.00;;;-142.21;100.00;112049.66;5094536;28;20478;-79
2022/01/30 05:23:28;;;;;;;3.00;2.80;;;9.40;80.00;;;-142.21;100.00;112049.66;5093267;28;20876;-78
2022/01/30 05:26:15;;;;;;;2.97;2.30;;;9.40;80.00;;;-142.21;100.00;112049.66;5097482;28;20434;-81
2022/01/30 05:28:44;;;;;;;3.77;2.33;;;9.40;80.10;;;-142.21;100.00;112049.66;5095217;28;20496;-78
2022/01/30 05:31:20;;;;;;;2.83;2.53;;;9.40;80.40;;;-142.21;100.00;112049.66;5093487;28;20462;-80
2022/01/30 05:33:48;;;;;;;3.57;3.07;;;9.30;80.30;;;-142.21;100.00;112049.66;5097691;28;20449;-81
2022/01/30 05:36:24;;;;;;;3.83;2.77;;;9.30;80.50;;;-142.21;100.00;112049.66;5086132;28;20471;-81
2022/01/30 05:38:53;;;;;;;5.60;2.70;;;9.30;80.80;;;-142.21;100.00;112049.66;5095684;28;20481;-80
2022/01/30 05:41:27;;;;;;;2.90;2.63;;;9.30;80.90;;;-142.21;100.00;112049.66;5075217;28;20533;-80
2022/01/30 05:43:58;;;;;;;3.17;2.87;;;9.30;81.00;;;-142.21;100.00;112049.66;5093309;28;20446;-79
2022/01/30 05:46:36;;;;;;;3.33;2.87;;;9.30;80.80;;;-142.21;100.00;112049.66;5092058;28;20493;-80
2022/01/30 05:49:05;;;;;;;5.67;3.37;;;9.30;81.10;;;-142.21;100.00;112049.66;5093762;28;20446;-80
2022/01/30 05:51:40;;;;;;;3.53;2.93;;;9.30;81.10;;;-142.21;100.00;112049.66;5092311;28;20450;-78
2022/01/30 05:54:07;;;;;;;3.37;2.80;;;9.30;80.90;;;-142.21;100.00;112049.66;5093641;28;20446;-78
2022/01/30 05:56:41;;;;;;;5.30;3.30;;;9.30;81.80;;;-142.21;100.00;112049.66;5092398;28;20462;-77
2022/01/30 05:59:09;;;;;;;3.00;2.70;;;9.20;81.30;;;-142.21;100.00;112049.66;5092037;28;20446;-77
2022/01/30 06:01:42;;;;;;;3.30;2.70;;;9.30;81.20;;;-142.21;100.00;112049.66;5092062;28;20486;-77
2022/01/30 06:04:09;;;;;;;3.03;2.80;;;9.30;81.30;;;-142.21;100.00;112049.66;5093133;28;20479;-78
2022/01/30 06:06:51;;;;;;;5.80;3.47;;;9.30;81.20;;;-142.21;100.00;112049.66;5091491;28;20516;-77
2022/01/30 06:09:20;;;;;;;5.30;3.07;;;9.30;81.40;;;-142.21;100.00;112049.66;5092652;28;20853;-76
2022/01/30 06:11:54;;;;;;;4.33;2.83;;;9.30;81.30;;;-142.21;100.00;112049.66;5091831;28;20467;-79
2022/01/30 06:14:23;;;;;;;2.93;2.63;;;9.30;81.60;;;-142.21;100.00;112049.66;5091930;28;21018;-79
2022/01/30 06:16:57;;;;;;;3.47;2.93;;;9.30;81.70;;;-142.21;100.00;112049.66;5091883;28;20498;-78
2022/01/30 06:19:25;;;;;;;3.40;3.10;;;9.30;81.40;;;-142.21;100.00;112049.66;5092499;28;20451;-78
2022/01/30 06:21:54;;;;;;;4.00;3.10;;;9.30;81.30;;;-142.21;100.00;112049.66;5092342;28;20478;-78
2022/01/30 06:24:21;;;;;;;4.70;3.10;;;9.30;81.60;;;-142.21;100.00;112049.66;5092445;28;20443;-78
2022/01/30 06:26:48;;;;;;;4.33;3.13;;;9.40;81.40;;;-142.21;100.00;112049.66;5091776;28;20443;-77
2022/01/30 06:29:16;;;;;;;3.80;2.83;;;9.40;81.20;;;-142.21;100.00;112049.66;5090813;28;20455;-78
2022/01/30 06:31:43;;;;;;;4.50;2.90;;;9.40;81.20;;;-142.21;100.00;112049.66;5091718;28;20450;-78
2022/01/30 06:34:11;;;;;;;4.40;3.07;;;9.40;81.10;;;-142.21;100.00;112049.66;5092427;28;20447;-83
2022/01/30 06:36:38;;;;;;;4.50;3.23;;;9.40;81.00;;;-142.21;100.00;112049.66;5092793;28;20451;-78
2022/01/30 06:39:08;;;;;;;5.90;3.47;;;9.40;81.00;;;-142.21;100.00;112049.66;5091977;28;20443;-79
2022/01/30 06:41:35;;;;;;;7.90;3.40;;;9.40;81.00;;;-142.21;100.00;112049.66;5092527;28;20478;-79
2022/01/30 06:44:05;;;;;;;5.03;3.50;;;9.50;80.80;;;-142.21;100.00;112049.66;5091639;28;20537;-80
2022/01/30 06:46:32;;;;;;;5.07;3.40;;;9.40;81.00;;;-142.21;100.00;112049.66;5091666;28;20451;-79
2022/01/30 06:48:59;;;;;;;3.77;3.10;;;9.40;80.90;;;-142.21;100.00;112049.66;5091658;28;20976;-80
2022/01/30 06:51:27;;;;;;;4.83;3.10;;;9.40;80.70;;;-142.21;100.00;112049.66;5092666;28;20478;-78
2022/01/30 06:53:54;;;;;;;3.87;3.40;;;9.40;80.50;;;-142.21;100.00;112049.66;5092755;28;20450;-78
2022/01/30 06:56:29;;;;;;;3.43;2.97;;;9.40;80.60;;;-142.21;100.00;112049.66;5090941;28;20461;-79
2022/01/30 06:58:57;;;;;;;5.33;3.40;;;9.40;80.70;;;-142.21;100.00;112049.66;5091247;28;20446;-79
2022/01/30 07:01:30;;;;;;;5.37;3.30;;;9.30;80.60;;;-142.21;100.00;112049.66;5090955;28;20567;-79
2022/01/30 07:03:58;;;;;;;4.97;3.53;;;9.30;80.60;;;-142.21;100.00;112049.66;5092425;28;20537;-79
2022/01/30 07:06:26;;;;;;;4.47;3.20;;;9.30;80.60;;;-142.21;100.00;112049.66;5091305;28;20447;-78
2022/01/30 07:08:53;;;;;;;6.43;3.40;;;9.30;79.90;;;-142.21;100.00;112049.66;5091984;28;20500;-79
2022/01/30 07:11:22;;;;;;;5.37;3.07;;;9.20;80.00;;;-142.21;100.00;112049.66;5090565;28;20986;-79
2022/01/30 07:13:54;;;;;;;6.03;3.43;;;9.20;80.00;;;-142.21;100.00;112049.66;5091175;28;20829;-78
2022/01/30 07:16:21;;;;;;;4.33;3.50;;;9.20;80.10;;;-142.21;100.00;112049.66;5091502;28;21027;-80
2022/01/30 07:18:55;;;;;;;7.53;4.00;;;9.20;80.00;;;-142.21;100.00;112049.66;5092228;28;20455;-80
2022/01/30 07:21:23;;;;;;;7.17;3.60;;;9.20;80.00;;;-142.21;100.00;112049.66;5091462;28;20570;-79
2022/01/30 07:23:51;;;;;;;7.47;3.80;;;9.20;80.00;;;-142.21;100.00;112049.66;5091532;28;20580;-78
2022/01/30 07:26:19;;;;;;;4.70;3.73;;;9.20;80.10;;;-142.21;100.00;112049.66;5091664;28;20984;-78
2022/01/30 07:28:47;;;;;;;4.37;3.30;;;9.20;80.00;;;-142.21;100.00;112049.66;5090352;28;20817;-78
2022/01/30 07:31:16;;;;;;;4.93;3.70;;;9.20;79.70;;;-142.21;100.00;112049.66;5091988;28;20438;-78
2022/01/30 07:33:51;;;;;;;6.27;3.63;;;9.20;79.80;;;-142.21;100.00;112049.66;5088029;28;20784;-79
2022/01/30 07:36:18;;;;;;;6.73;3.80;;;9.30;79.80;;;-142.21;100.00;112049.66;5082088;28;20477;-78
2022/01/30 07:38:53;;;;;;;5.80;3.60;;;9.30;79.30;;;-142.21;100.00;112049.66;5090707;28;20462;-78
2022/01/30 07:41:20;;;;;;;5.67;4.17;;;9.30;79.30;;;-142.21;100.00;112049.66;5091337;28;20548;-78
2022/01/30 07:43:48;;;;;;;5.20;4.03;;;9.70;78.60;;;-142.21;100.00;112049.66;5091367;28;20831;-78
2022/01/30 07:46:17;;;;;;;7.93;3.50;;;9.90;77.50;;;-142.21;100.00;112049.66;5090355;28;20443;-78
2022/01/30 07:48:44;;;;;;;5.50;3.43;;;9.90;76.70;;;-142.21;100.00;112049.66;5090974;28;20853;-78
2022/01/30 07:51:12;;;;;;;8.57;3.90;;;10.00;74.80;;;-142.21;100.00;112049.66;5091922;28;20853;-78
2022/01/30 07:53:45;;;;;;;4.63;3.60;;;9.90;76.30;;;-142.21;100.00;112049.66;5090367;28;20443;-79
2022/01/30 07:56:19;;;;;;;4.23;3.67;;;9.90;76.70;;;-142.21;100.00;112049.66;5088895;28;20982;-78
2022/01/30 07:58:46;;;;;;;6.13;3.73;;;9.80;77.50;;;-142.21;100.00;112049.66;5089659;28;20443;-78
2022/01/30 08:01:21;;;;;;;6.10;3.63;;;9.80;77.30;;;-142.21;100.00;112049.66;5090806;28;20535;-78
2022/01/30 08:03:49;;;;;;;4.90;3.90;;;9.90;77.50;;;-142.21;100.00;112049.66;5083183;28;20434;-79
2022/01/30 08:06:41;;;;;;;4.57;3.30;;;10.00;75.80;;;-142.21;100.00;112049.66;5091052;28;20438;-79
2022/01/30 08:09:08;;;;;;;4.17;3.20;;;10.10;75.50;;;-142.21;100.00;112049.66;5091294;28;20848;-78
2022/01/30 08:11:42;;;;;;;5.87;3.00;;;10.30;75.50;;;-142.21;100.00;112049.66;5093856;28;21070;-78
2022/01/30 08:14:09;;;;;;;4.57;3.23;;;10.20;75.40;;;-142.21;100.00;112049.66;5094826;28;20446;-77
2022/01/30 08:16:39;;;;;;;3.57;3.27;;;10.20;75.40;;;-142.21;100.00;112049.66;5094918;28;20493;-78
2022/01/30 08:19:07;;;;;;;8.53;3.50;;;10.10;75.60;;;-142.21;100.00;112049.66;5094412;28;20466;-79
2022/01/30 08:21:40;;;;;;;3.10;2.80;;;10.80;75.10;;;-142.21;100.00;112049.66;5095061;28;20562;-79
2022/01/30 08:24:08;;;;;;;5.83;3.40;;;10.70;74.10;;;-142.21;100.00;112049.66;5093764;28;20946;-78
2022/01/30 08:26:41;;;;;;;7.40;3.30;;;10.50;74.50;;;-142.21;100.00;112049.66;5094258;28;20514;-79
2022/01/30 08:29:09;;;;;;;5.13;3.70;;;10.40;74.60;;;-142.21;100.00;112049.66;5094334;28;20442;-78
2022/01/30 08:31:37;;;;;;;4.00;3.23;;;10.30;74.90;;;-142.21;100.00;112049.66;5095810;28;20524;-79
2022/01/30 08:34:05;;;;;;;4.47;3.70;;;10.30;75.00;;;-142.21;100.00;112049.66;5094254;28;21205;-78
2022/01/30 08:36:33;;;;;;;8.60;4.30;;;10.30;74.90;;;-142.21;100.00;112049.66;5094214;28;20494;-76
2022/01/30 08:39:01;;;;;;;7.77;4.87;;;10.20;75.10;;;-142.21;100.00;112049.66;5094533;28;20470;-76
2022/01/30 08:41:29;;;;;;;5.10;4.40;;;10.10;75.40;;;-142.21;100.00;112049.66;5093598;28;20532;-76
2022/01/30 08:43:57;;;;;;;7.53;3.80;;;10.10;75.40;;;-142.21;100.00;112049.66;5094111;28;20447;-76
2022/01/30 08:46:30;;;;;;;6.83;4.30;;;10.00;75.40;;;-142.21;100.00;112049.66;5093983;28;20466;-77
2022/01/30 08:48:59;;;;;;;4.57;4.00;;;9.90;77.10;;;-142.21;100.00;112049.66;5093914;28;20530;-77
2022/01/30 08:51:26;;;;;;;5.40;4.07;;;9.90;77.20;;;-142.21;100.00;112049.66;5092307;28;20872;-78
2022/01/30 08:53:53;;;;;;;8.03;4.30;;;10.00;76.10;;;-142.21;100.00;112049.66;5094073;28;20478;-77
2022/01/30 08:56:22;;;;;;;4.90;3.73;;;10.00;76.00;;;-142.21;100.00;112049.66;5093419;28;20527;-78
2022/01/30 08:58:50;;;;;;;5.13;3.70;;;10.30;76.30;;;-142.21;100.00;112049.66;5094350;28;20529;-79
2022/01/30 09:01:21;;;;;;;7.07;4.00;;;10.80;74.70;;;-142.21;100.00;112049.66;5093351;28;20531;-85
2022/01/30 09:03:51;;;;;;;9.80;4.40;;;10.90;73.10;;;-142.21;100.00;112049.66;5095778;28;20454;-86
2022/01/30 09:06:20;;;;;;;7.10;3.80;;;11.00;73.30;;;-142.21;100.00;112049.66;5096873;28;20446;-82
2022/01/30 09:08:47;;;;;;;10.93;4.60;;;11.00;73.20;;;-142.21;100.00;112049.66;5094472;28;20540;-77
2022/01/30 09:11:15;;;;;;;7.40;4.23;;;11.10;72.70;;;-142.21;100.00;112049.66;5094413;28;20496;-84
2022/01/30 09:13:42;;;;;;;4.97;3.37;;;12.80;70.30;;;-142.21;100.00;112049.66;5092997;28;20458;-81
2022/01/30 09:16:09;;;;;;;7.77;3.90;;;13.20;65.80;;;-142.21;100.00;112049.66;5095348;28;20454;-82
2022/01/30 09:18:38;;;;;;;10.40;4.00;;;12.80;65.30;;;-142.21;100.00;112049.66;5099766;28;20451;-84
2022/01/30 09:21:06;;;;;;;8.70;3.97;;;12.60;66.10;;;-142.21;100.00;112049.66;5102321;28;20454;-86
2022/01/30 09:23:35;;;;;;;8.63;4.00;;;12.80;65.50;;;-142.21;100.00;112049.66;5094318;28;20451;-82
2022/01/30 09:26:02;;;;;;;7.63;3.73;;;13.30;63.40;;;-142.21;100.00;112049.66;5097924;28;20918;-78
2022/01/30 09:28:29;;;;;;;6.20;3.37;;;14.50;62.00;;;-142.21;100.00;112049.66;5095368;28;20946;-77
2022/01/30 09:30:57;;;;;;;8.30;3.60;;;15.70;57.60;;;-142.21;100.00;112049.66;5086841;28;20516;-79
2022/01/30 09:33:24;;;;;;;10.27;3.53;;;15.90;55.60;;;-142.21;100.00;112049.66;5093205;28;20538;-81
2022/01/30 09:35:51;;;;;;;10.27;3.30;;;15.30;56.00;;;-142.21;99.90;112049.66;5092669;28;20504;-78
2022/01/30 09:38:19;;;;;;;6.50;3.27;;;15.50;56.50;;;-142.21;87.31;112049.66;5093894;28;20938;-81
2022/01/30 09:40:51;;;;;;;12.53;3.50;;;15.80;54.80;;;-142.21;79.50;112049.66;5094085;28;20504;-86
2022/01/30 09:43:25;;;;;;;8.33;3.10;;;16.90;52.50;;;-142.21;79.26;112049.66;5094268;28;20536;-79
2022/01/30 09:45:54;;;;;;;7.63;3.40;;;17.60;49.90;;;-142.21;71.81;112049.66;5092292;28;20475;-85
2022/01/30 09:48:25;;;;;;;7.67;3.20;;;18.10;49.70;;;-142.21;64.74;112049.66;5093652;28;20459;-79
2022/01/30 09:50:55;;;;;;;9.07;3.37;;;19.00;48.60;;;-142.21;63.93;112049.66;5093886;28;20502;-85
2022/01/30 09:53:23;;;;;;;11.67;3.57;;;18.50;47.90;;;-142.21;62.64;112049.66;5094410;28;20809;-84
2022/01/30 09:55:52;;;;;;;6.23;3.50;;;19.60;46.50;;;-142.21;60.59;112049.66;5094997;28;20533;-83
2022/01/30 09:58:19;;;;;;;8.87;3.60;;;18.60;45.30;;;-142.21;67.66;112049.66;5093515;28;21063;-80
2022/01/30 10:00:47;;;;;;;8.60;3.57;;;17.50;47.20;;;-142.21;69.91;112049.66;5093681;28;20442;-80
2022/01/30 10:03:22;;;;;;;12.83;4.37;;;16.50;48.30;;;-142.21;79.41;112049.66;5094091;28;20981;-83
2022/01/30 10:06:08;;;;;;;8.50;3.90;;;15.80;48.60;;;-142.21;67.91;112049.66;5105687;28;20524;-82
2022/01/30 10:08:43;;;;;;;9.07;3.80;;;17.40;47.20;;;-142.21;66.84;112049.66;5088264;28;20478;-83
2022/01/30 10:11:30;;;;;;;10.13;4.23;;;17.40;47.70;;;-142.21;59.37;112049.66;5091057;28;20474;-80
2022/01/30 10:14:07;;;;;;;9.60;3.77;;;17.90;47.30;;;-142.21;52.32;112049.66;5091208;28;20529;-80
2022/01/30 10:16:37;;;;;;;12.67;4.20;;;19.40;45.50;;;-142.21;54.25;112049.66;5091469;28;20430;-79
2022/01/30 10:19:11;;;;;;;7.73;3.30;;;20.80;45.50;;;-142.21;51.35;112049.66;5090932;28;20527;-79
2022/01/30 10:21:40;;;;;;;7.87;3.77;;;21.70;42.40;;;-142.21;54.61;112049.66;5093267;28;20224;-83
2022/01/30 10:24:24;;;;;;;11.10;4.20;;;20.20;42.60;;;-142.21;54.65;112049.66;5092826;28;20538;-82
2022/01/30 10:26:56;;;;;;;12.13;4.07;;;19.80;42.90;;;-142.21;54.77;112049.66;5092659;28;20261;-81
2022/01/30 10:29:27;;;;;;;11.83;3.70;;;18.60;43.90;;;-142.21;56.07;112049.66;5099533;28;20454;-80
2022/01/30 10:32:07;;;;;;;7.53;3.27;;;18.10;44.30;;;-142.21;58.28;112049.66;5091636;28;21015;-80
2022/01/30 10:34:37;;;;;;;9.57;3.53;;;18.70;43.80;;;-142.21;48.97;112049.66;5083350;28;20524;-76
2022/01/30 10:37:21;;;;;;;9.60;3.80;;;19.00;42.80;;;-142.21;54.08;112049.66;5093267;28;20478;-78
2022/01/30 10:40:09;;;;;;;8.07;3.30;;;18.00;43.00;;;-142.21;52.36;112049.66;5080804;28;20516;-78
2022/01/30 10:42:43;;;;;;;10.50;3.60;;;17.10;43.20;;;-142.21;57.43;112049.66;5095259;28;20474;-80
2022/01/30 10:45:15;;;;;;;9.87;3.57;;;16.40;44.80;;;-142.21;52.10;112049.66;5095794;28;20990;-78
2022/01/30 10:47:44;;;;;;;8.47;2.90;;;17.20;44.20;;;-142.21;45.70;112049.66;5092357;28;20942;-78